sensor_id;sensor_type;location;lat;lon;timestamp;P1;durP1;ratioP1;P2;durP2;ratioP2
43650;SDS011;29247;50.944;5.382;2023-05-10T00:02:08;7.10;;;5.60;;
43650;SDS011;29247;50.944;5.382;2023-05-10T00:04:34;7.90;;;6.07;;
43650;SDS011;29247;50.944;5.382;2023-05-10T00:07:00;9.48;;;6.22;;
43650;SDS011;29247;50.944;5.382;2023-05-10T00:09:26;6.93;;;5.18;;
43650;SDS011;29247;50.944;5.382;2023-05-10T00:11:55;6.43;;;5.03;;
43650;SDS011;29247;50.944;5.382;2023-05-10T00:14:23;6.25;;;4.95;;
43650;SDS011;29247;50.944;5.382;2023-05-10T00:16:49;8.32;;;5.15;;
43650;SDS011;29247;50.944;5.382;2023-05-10T00:19:14;7.35;;;4.38;;
43650;SDS011;29247;50.944;5.382;2023-05-10T00:21:40;6.25;;;4.22;;
43650;SDS011;29247;50.944;5.382;2023-05-10T00:24:06;5.80;;;4.40;;
43650;SDS011;29247;50.944;5.382;2023-05-10T00:26:34;7.43;;;4.65;;
43650;SDS011;29247;50.944;5.382;2023-05-10T00:29:00;9.38;;;4.80;;
43650;SDS011;29247;50.944;5.382;2023-05-10T00:31:26;7.20;;;4.47;;
43650;SDS011;29247;50.944;5.382;2023-05-10T00:33:52;5.50;;;4.30;;
43650;SDS011;29247;50.944;5.382;2023-05-10T00:36:21;9.35;;;4.63;;
43650;SDS011;29247;50.944;5.382;2023-05-10T00:38:47;5.82;;;4.50;;
43650;SDS011;29247;50.944;5.382;2023-05-10T00:41:12;7.05;;;4.28;;
43650;SDS011;29247;50.944;5.382;2023-05-10T00:43:38;6.65;;;4.57;;
43650;SDS011;29247;50.944;5.382;2023-05-10T00:46:04;8.32;;;4.65;;
43650;SDS011;29247;50.944;5.382;2023-05-10T00:48:30;6.45;;;4.15;;
43650;SDS011;29247;50.944;5.382;2023-05-10T00:50:56;5.55;;;4.30;;
43650;SDS011;29247;50.944;5.382;2023-05-10T00:53:22;8.13;;;4.57;;
43650;SDS011;29247;50.944;5.382;2023-05-10T00:55:54;5.25;;;4.13;;
43650;SDS011;29247;50.944;5.382;2023-05-10T00:58:20;8.95;;;5.13;;
43650;SDS011;29247;50.944;5.382;2023-05-10T01:00:46;6.60;;;4.82;;
43650;SDS011;29247;50.944;5.382;2023-05-10T01:03:12;6.30;;;4.63;;
43650;SDS011;29247;50.944;5.382;2023-05-10T01:05:40;6.15;;;4.35;;
43650;SDS011;29247;50.944;5.382;2023-05-10T01:08:08;6.95;;;4.57;;
43650;SDS011;29247;50.944;5.382;2023-05-10T01:10:34;5.45;;;4.18;;
43650;SDS011;29247;50.944;5.382;2023-05-10T01:13:00;9.23;;;4.60;;
43650;SDS011;29247;50.944;5.382;2023-05-10T01:15:26;5.60;;;4.03;;
43650;SDS011;29247;50.944;5.382;2023-05-10T01:17:55;5.22;;;4.45;;
43650;SDS011;29247;50.944;5.382;2023-05-10T01:20:24;8.15;;;4.15;;
43650;SDS011;29247;50.944;5.382;2023-05-10T01:23:58;6.00;;;4.43;;
43650;SDS011;29247;50.944;5.382;2023-05-10T01:31:18;4.55;;;3.47;;
43650;SDS011;29247;50.944;5.382;2023-05-10T01:36:42;6.10;;;4.50;;
43650;SDS011;29247;50.944;5.382;2023-05-10T01:39:11;10.35;;;4.60;;
43650;SDS011;29247;50.944;5.382;2023-05-10T01:41:45;7.07;;;4.43;;
43650;SDS011;29247;50.944;5.382;2023-05-10T01:47:10;12.35;;;4.70;;
43650;SDS011;29247;50.944;5.382;2023-05-10T01:49:46;6.57;;;4.15;;
43650;SDS011;29247;50.944;5.382;2023-05-10T01:52:16;6.75;;;4.57;;
43650;SDS011;29247;50.944;5.382;2023-05-10T01:54:50;7.93;;;5.20;;
43650;SDS011;29247;50.944;5.382;2023-05-10T01:57:37;9.38;;;5.40;;
43650;SDS011;29247;50.944;5.382;2023-05-10T02:00:06;9.55;;;5.00;;
43650;SDS011;29247;50.944;5.382;2023-05-10T02:02:40;7.53;;;4.60;;
43650;SDS011;29247;50.944;5.382;2023-05-10T02:05:09;9.18;;;4.57;;
43650;SDS011;29247;50.944;5.382;2023-05-10T02:07:40;8.30;;;4.85;;
43650;SDS011;29247;50.944;5.382;2023-05-10T02:10:07;9.35;;;4.85;;
43650;SDS011;29247;50.944;5.382;2023-05-10T02:12:39;8.00;;;4.50;;
43650;SDS011;29247;50.944;5.382;2023-05-10T02:15:10;8.25;;;5.05;;
43650;SDS011;29247;50.944;5.382;2023-05-10T02:17:38;11.85;;;5.40;;
43650;SDS011;29247;50.944;5.382;2023-05-10T02:20:05;8.90;;;5.03;;
43650;SDS011;29247;50.944;5.382;2023-05-10T02:22:36;7.78;;;4.75;;
43650;SDS011;29247;50.944;5.382;2023-05-10T02:25:03;10.02;;;5.63;;
43650;SDS011;29247;50.944;5.382;2023-05-10T02:27:29;7.25;;;5.45;;
43650;SDS011;29247;50.944;5.382;2023-05-10T02:29:56;12.95;;;6.25;;
43650;SDS011;29247;50.944;5.382;2023-05-10T02:32:22;8.60;;;5.45;;
43650;SDS011;29247;50.944;5.382;2023-05-10T02:34:57;12.55;;;5.95;;
43650;SDS011;29247;50.944;5.382;2023-05-10T02:37:26;8.55;;;5.85;;
43650;SDS011;29247;50.944;5.382;2023-05-10T02:39:53;11.90;;;5.65;;
43650;SDS011;29247;50.944;5.382;2023-05-10T02:42:23;10.43;;;5.75;;
43650;SDS011;29247;50.944;5.382;2023-05-10T02:47:19;10.85;;;5.70;;
43650;SDS011;29247;50.944;5.382;2023-05-10T02:49:45;14.60;;;6.70;;
43650;SDS011;29247;50.944;5.382;2023-05-10T02:52:11;13.00;;;6.05;;
43650;SDS011;29247;50.944;5.382;2023-05-10T02:54:45;13.27;;;6.45;;
43650;SDS011;29247;50.944;5.382;2023-05-10T02:57:16;10.60;;;5.45;;
43650;SDS011;29247;50.944;5.382;2023-05-10T02:59:45;10.70;;;5.55;;
43650;SDS011;29247;50.944;5.382;2023-05-10T03:02:14;18.33;;;8.13;;
43650;SDS011;29247;50.944;5.382;2023-05-10T03:04:40;13.20;;;5.43;;
43650;SDS011;29247;50.944;5.382;2023-05-10T03:07:05;8.50;;;5.53;;
43650;SDS011;29247;50.944;5.382;2023-05-10T03:09:34;12.85;;;5.85;;
43650;SDS011;29247;50.944;5.382;2023-05-10T03:12:11;9.23;;;6.38;;
43650;SDS011;29247;50.944;5.382;2023-05-10T03:15:07;9.88;;;5.57;;
43650;SDS011;29247;50.944;5.382;2023-05-10T03:17:47;10.43;;;5.65;;
43650;SDS011;29247;50.944;5.382;2023-05-10T03:20:31;12.02;;;6.25;;
43650;SDS011;29247;50.944;5.382;2023-05-10T03:25:43;8.85;;;5.40;;
43650;SDS011;29247;50.944;5.382;2023-05-10T03:28:12;10.75;;;6.35;;
43650;SDS011;29247;50.944;5.382;2023-05-10T03:30:42;11.05;;;5.75;;
43650;SDS011;29247;50.944;5.382;2023-05-10T03:33:08;10.82;;;6.05;;
43650;SDS011;29247;50.944;5.382;2023-05-10T03:35:34;9.82;;;6.45;;
43650;SDS011;29247;50.944;5.382;2023-05-10T03:38:01;16.85;;;6.63;;
43650;SDS011;29247;50.944;5.382;2023-05-10T03:40:27;11.65;;;6.80;;
43650;SDS011;29247;50.944;5.382;2023-05-10T03:42:58;10.75;;;6.00;;
43650;SDS011;29247;50.944;5.382;2023-05-10T03:45:26;12.18;;;6.22;;
43650;SDS011;29247;50.944;5.382;2023-05-10T03:47:52;13.77;;;6.57;;
43650;SDS011;29247;50.944;5.382;2023-05-10T03:50:19;11.98;;;5.80;;
43650;SDS011;29247;50.944;5.382;2023-05-10T03:52:45;10.52;;;6.25;;
43650;SDS011;29247;50.944;5.382;2023-05-10T03:55:10;9.30;;;6.10;;
43650;SDS011;29247;50.944;5.382;2023-05-10T03:57:36;9.88;;;6.32;;
43650;SDS011;29247;50.944;5.382;2023-05-10T04:00:08;11.65;;;5.75;;
43650;SDS011;29247;50.944;5.382;2023-05-10T04:02:37;11.00;;;6.95;;
43650;SDS011;29247;50.944;5.382;2023-05-10T04:05:05;12.85;;;6.05;;
43650;SDS011;29247;50.944;5.382;2023-05-10T04:07:31;10.02;;;6.03;;
43650;SDS011;29247;50.944;5.382;2023-05-10T04:09:57;12.70;;;6.63;;
43650;SDS011;29247;50.944;5.382;2023-05-10T04:12:23;11.38;;;7.15;;
43650;SDS011;29247;50.944;5.382;2023-05-10T04:14:49;11.48;;;7.00;;
43650;SDS011;29247;50.944;5.382;2023-05-10T04:17:14;14.25;;;6.15;;
43650;SDS011;29247;50.944;5.382;2023-05-10T04:19:42;16.58;;;7.32;;
43650;SDS011;29247;50.944;5.382;2023-05-10T04:22:10;13.05;;;7.20;;
43650;SDS011;29247;50.944;5.382;2023-05-10T04:24:39;14.25;;;7.53;;
43650;SDS011;29247;50.944;5.382;2023-05-10T04:27:04;21.60;;;7.80;;
43650;SDS011;29247;50.944;5.382;2023-05-10T04:29:30;15.73;;;7.93;;
43650;SDS011;29247;50.944;5.382;2023-05-10T04:31:56;12.00;;;6.93;;
43650;SDS011;29247;50.944;5.382;2023-05-10T04:34:22;11.30;;;7.07;;
43650;SDS011;29247;50.944;5.382;2023-05-10T04:36:48;13.90;;;7.35;;
43650;SDS011;29247;50.944;5.382;2023-05-10T04:39:14;12.50;;;7.57;;
43650;SDS011;29247;50.944;5.382;2023-05-10T04:41:40;15.25;;;7.55;;
43650;SDS011;29247;50.944;5.382;2023-05-10T04:44:11;11.55;;;6.72;;
43650;SDS011;29247;50.944;5.382;2023-05-10T04:46:36;14.75;;;7.50;;
43650;SDS011;29247;50.944;5.382;2023-05-10T04:49:04;13.20;;;7.18;;
43650;SDS011;29247;50.944;5.382;2023-05-10T04:51:30;12.57;;;6.70;;
43650;SDS011;29247;50.944;5.382;2023-05-10T04:53:56;15.25;;;7.25;;
43650;SDS011;29247;50.944;5.382;2023-05-10T04:56:25;14.30;;;6.72;;
43650;SDS011;29247;50.944;5.382;2023-05-10T04:58:50;10.73;;;6.65;;
43650;SDS011;29247;50.944;5.382;2023-05-10T05:01:16;18.45;;;7.18;;
43650;SDS011;29247;50.944;5.382;2023-05-10T05:03:42;14.35;;;7.63;;
43650;SDS011;29247;50.944;5.382;2023-05-10T05:06:08;12.90;;;7.90;;
43650;SDS011;29247;50.944;5.382;2023-05-10T05:08:33;16.15;;;7.80;;
43650;SDS011;29247;50.944;5.382;2023-05-10T05:11:02;17.85;;;7.93;;
43650;SDS011;29247;50.944;5.382;2023-05-10T05:13:31;15.05;;;8.10;;
43650;SDS011;29247;50.944;5.382;2023-05-10T05:15:59;14.27;;;7.07;;
43650;SDS011;29247;50.944;5.382;2023-05-10T05:18:26;14.82;;;8.20;;
43650;SDS011;29247;50.944;5.382;2023-05-10T05:20:52;17.15;;;8.55;;
43650;SDS011;29247;50.944;5.382;2023-05-10T05:23:19;15.90;;;9.30;;
43650;SDS011;29247;50.944;5.382;2023-05-10T05:25:50;14.18;;;8.43;;
43650;SDS011;29247;50.944;5.382;2023-05-10T05:28:17;14.00;;;8.05;;
43650;SDS011;29247;50.944;5.382;2023-05-10T05:30:44;19.65;;;9.45;;
43650;SDS011;29247;50.944;5.382;2023-05-10T05:33:10;14.75;;;7.85;;
43650;SDS011;29247;50.944;5.382;2023-05-10T05:35:36;18.48;;;9.63;;
43650;SDS011;29247;50.944;5.382;2023-05-10T05:38:02;17.92;;;8.63;;
43650;SDS011;29247;50.944;5.382;2023-05-10T05:40:31;18.85;;;9.55;;
43650;SDS011;29247;50.944;5.382;2023-05-10T05:42:56;22.40;;;10.63;;
43650;SDS011;29247;50.944;5.382;2023-05-10T05:45:22;23.52;;;10.85;;
43650;SDS011;29247;50.944;5.382;2023-05-10T05:47:48;26.38;;;11.32;;
43650;SDS011;29247;50.944;5.382;2023-05-10T05:50:14;29.95;;;13.02;;
43650;SDS011;29247;50.944;5.382;2023-05-10T05:52:40;26.67;;;11.95;;
43650;SDS011;29247;50.944;5.382;2023-05-10T05:55:06;25.05;;;11.73;;
43650;SDS011;29247;50.944;5.382;2023-05-10T05:57:32;35.97;;;13.07;;
43650;SDS011;29247;50.944;5.382;2023-05-10T05:59:58;27.48;;;12.23;;
43650;SDS011;29247;50.944;5.382;2023-05-10T06:02:24;30.02;;;12.85;;
43650;SDS011;29247;50.944;5.382;2023-05-10T06:04:52;24.90;;;11.55;;
43650;SDS011;29247;50.944;5.382;2023-05-10T06:07:18;24.40;;;12.57;;
43650;SDS011;29247;50.944;5.382;2023-05-10T06:09:43;31.17;;;13.38;;
43650;SDS011;29247;50.944;5.382;2023-05-10T06:12:09;29.52;;;14.27;;
43650;SDS011;29247;50.944;5.382;2023-05-10T06:14:36;28.90;;;12.32;;
43650;SDS011;29247;50.944;5.382;2023-05-10T06:17:02;34.35;;;14.35;;
43650;SDS011;29247;50.944;5.382;2023-05-10T06:19:30;31.85;;;13.90;;
43650;SDS011;29247;50.944;5.382;2023-05-10T06:21:55;37.20;;;14.43;;
43650;SDS011;29247;50.944;5.382;2023-05-10T06:24:23;40.67;;;14.75;;
43650;SDS011;29247;50.944;5.382;2023-05-10T06:26:52;27.73;;;12.65;;
43650;SDS011;29247;50.944;5.382;2023-05-10T06:29:18;26.13;;;12.55;;
43650;SDS011;29247;50.944;5.382;2023-05-10T06:31:47;32.50;;;11.85;;
43650;SDS011;29247;50.944;5.382;2023-05-10T06:34:15;27.88;;;11.95;;
43650;SDS011;29247;50.944;5.382;2023-05-10T06:36:41;26.85;;;13.15;;
43650;SDS011;29247;50.944;5.382;2023-05-10T06:39:07;26.33;;;11.82;;
43650;SDS011;29247;50.944;5.382;2023-05-10T06:41:33;26.52;;;11.68;;
43650;SDS011;29247;50.944;5.382;2023-05-10T06:44:04;29.30;;;12.15;;
43650;SDS011;29247;50.944;5.382;2023-05-10T06:46:34;29.35;;;12.13;;
43650;SDS011;29247;50.944;5.382;2023-05-10T06:49:02;32.10;;;13.15;;
43650;SDS011;29247;50.944;5.382;2023-05-10T06:51:28;30.85;;;12.95;;
43650;SDS011;29247;50.944;5.382;2023-05-10T06:53:54;28.05;;;12.40;;
43650;SDS011;29247;50.944;5.382;2023-05-10T06:56:22;31.33;;;13.35;;
43650;SDS011;29247;50.944;5.382;2023-05-10T06:58:47;35.10;;;12.75;;
43650;SDS011;29247;50.944;5.382;2023-05-10T07:01:14;29.30;;;11.95;;
43650;SDS011;29247;50.944;5.382;2023-05-10T07:03:40;29.13;;;13.32;;
43650;SDS011;29247;50.944;5.382;2023-05-10T07:06:06;27.15;;;13.18;;
43650;SDS011;29247;50.944;5.382;2023-05-10T07:08:35;29.75;;;12.82;;
43650;SDS011;29247;50.944;5.382;2023-05-10T07:11:03;29.67;;;12.65;;
43650;SDS011;29247;50.944;5.382;2023-05-10T07:13:30;23.83;;;11.95;;
43650;SDS011;29247;50.944;5.382;2023-05-10T07:15:57;32.95;;;13.02;;
43650;SDS011;29247;50.944;5.382;2023-05-10T07:18:25;26.83;;;12.35;;
43650;SDS011;29247;50.944;5.382;2023-05-10T07:20:51;24.50;;;11.65;;
43650;SDS011;29247;50.944;5.382;2023-05-10T07:23:17;25.15;;;11.70;;
43650;SDS011;29247;50.944;5.382;2023-05-10T07:25:44;28.83;;;12.82;;
43650;SDS011;29247;50.944;5.382;2023-05-10T07:28:14;25.27;;;13.13;;
43650;SDS011;29247;50.944;5.382;2023-05-10T07:30:41;29.02;;;12.65;;
43650;SDS011;29247;50.944;5.382;2023-05-10T07:33:08;29.27;;;12.77;;
43650;SDS011;29247;50.944;5.382;2023-05-10T07:35:35;26.23;;;11.80;;
43650;SDS011;29247;50.944;5.382;2023-05-10T07:38:01;25.80;;;12.60;;
43650;SDS011;29247;50.944;5.382;2023-05-10T07:40:27;27.38;;;11.07;;
43650;SDS011;29247;50.944;5.382;2023-05-10T07:42:54;26.52;;;12.07;;
43650;SDS011;29247;50.944;5.382;2023-05-10T07:45:20;26.27;;;11.68;;
43650;SDS011;29247;50.944;5.382;2023-05-10T07:47:45;25.73;;;12.60;;
43650;SDS011;29247;50.944;5.382;2023-05-10T07:50:11;24.92;;;12.02;;
43650;SDS011;29247;50.944;5.382;2023-05-10T07:52:37;23.38;;;11.55;;
43650;SDS011;29247;50.944;5.382;2023-05-10T07:55:02;22.52;;;11.63;;
43650;SDS011;29247;50.944;5.382;2023-05-10T07:57:28;27.80;;;11.75;;
43650;SDS011;29247;50.944;5.382;2023-05-10T07:59:54;23.58;;;10.35;;
43650;SDS011;29247;50.944;5.382;2023-05-10T08:02:20;23.25;;;12.10;;
43650;SDS011;29247;50.944;5.382;2023-05-10T08:04:45;26.58;;;12.82;;
43650;SDS011;29247;50.944;5.382;2023-05-10T08:07:11;25.75;;;11.73;;
43650;SDS011;29247;50.944;5.382;2023-05-10T08:09:37;19.60;;;9.82;;
43650;SDS011;29247;50.944;5.382;2023-05-10T08:12:03;23.17;;;11.73;;
43650;SDS011;29247;50.944;5.382;2023-05-10T08:14:29;22.80;;;10.68;;
43650;SDS011;29247;50.944;5.382;2023-05-10T08:16:55;20.45;;;10.98;;
43650;SDS011;29247;50.944;5.382;2023-05-10T08:19:21;21.20;;;10.43;;
43650;SDS011;29247;50.944;5.382;2023-05-10T08:21:49;10.82;;;5.65;;
43650;SDS011;29247;50.944;5.382;2023-05-10T08:24:15;7.32;;;4.47;;
43650;SDS011;29247;50.944;5.382;2023-05-10T08:26:43;3.67;;;2.63;;
43650;SDS011;29247;50.944;5.382;2023-05-10T08:29:09;3.70;;;2.05;;
43650;SDS011;29247;50.944;5.382;2023-05-10T08:31:35;3.45;;;1.85;;
43650;SDS011;29247;50.944;5.382;2023-05-10T08:34:00;2.90;;;1.80;;
43650;SDS011;29247;50.944;5.382;2023-05-10T08:36:29;3.40;;;1.50;;
43650;SDS011;29247;50.944;5.382;2023-05-10T08:38:55;2.28;;;1.45;;
43650;SDS011;29247;50.944;5.382;2023-05-10T08:41:22;2.78;;;1.65;;
43650;SDS011;29247;50.944;5.382;2023-05-10T08:44:08;2.70;;;1.42;;
43650;SDS011;29247;50.944;5.382;2023-05-10T08:46:37;5.38;;;1.52;;
43650;SDS011;29247;50.944;5.382;2023-05-10T08:49:08;5.05;;;1.50;;
43650;SDS011;29247;50.944;5.382;2023-05-10T08:51:39;2.70;;;1.40;;
43650;SDS011;29247;50.944;5.382;2023-05-10T08:54:08;2.47;;;1.40;;
43650;SDS011;29247;50.944;5.382;2023-05-10T08:56:39;3.38;;;1.30;;
43650;SDS011;29247;50.944;5.382;2023-05-10T08:59:05;2.92;;;1.60;;
43650;SDS011;29247;50.944;5.382;2023-05-10T09:01:31;1.90;;;1.35;;
43650;SDS011;29247;50.944;5.382;2023-05-10T09:04:01;2.10;;;1.40;;
43650;SDS011;29247;50.944;5.382;2023-05-10T09:06:27;1.80;;;1.40;;
43650;SDS011;29247;50.944;5.382;2023-05-10T09:08:57;1.92;;;1.50;;
43650;SDS011;29247;50.944;5.382;2023-05-10T09:11:23;2.67;;;1.80;;
43650;SDS011;29247;50.944;5.382;2023-05-10T09:13:50;2.72;;;1.58;;
43650;SDS011;29247;50.944;5.382;2023-05-10T09:16:18;2.75;;;1.83;;
43650;SDS011;29247;50.944;5.382;2023-05-10T09:18:45;4.47;;;1.75;;
43650;SDS011;29247;50.944;5.382;2023-05-10T09:21:10;3.25;;;1.92;;
43650;SDS011;29247;50.944;5.382;2023-05-10T09:23:36;2.60;;;1.90;;
43650;SDS011;29247;50.944;5.382;2023-05-10T09:26:05;3.78;;;1.92;;
43650;SDS011;29247;50.944;5.382;2023-05-10T09:28:32;6.88;;;2.25;;
43650;SDS011;29247;50.944;5.382;2023-05-10T09:31:17;4.22;;;2.17;;
43650;SDS011;29247;50.944;5.382;2023-05-10T09:33:47;3.83;;;2.33;;
43650;SDS011;29247;50.944;5.382;2023-05-10T09:36:14;3.85;;;2.28;;
43650;SDS011;29247;50.944;5.382;2023-05-10T09:41:17;4.22;;;2.67;;
43650;SDS011;29247;50.944;5.382;2023-05-10T09:43:50;3.95;;;2.15;;
43650;SDS011;29247;50.944;5.382;2023-05-10T09:46:20;3.65;;;2.58;;
43650;SDS011;29247;50.944;5.382;2023-05-10T09:48:48;4.50;;;2.80;;
43650;SDS011;29247;50.944;5.382;2023-05-10T09:53:46;6.45;;;2.83;;
43650;SDS011;29247;50.944;5.382;2023-05-10T09:56:32;4.90;;;2.60;;
43650;SDS011;29247;50.944;5.382;2023-05-10T09:59:06;7.40;;;3.45;;
43650;SDS011;29247;50.944;5.382;2023-05-10T10:01:34;4.70;;;2.63;;
43650;SDS011;29247;50.944;5.382;2023-05-10T10:04:09;6.20;;;3.33;;
43650;SDS011;29247;50.944;5.382;2023-05-10T10:06:36;5.40;;;3.10;;
43650;SDS011;29247;50.944;5.382;2023-05-10T10:09:08;6.20;;;3.60;;
43650;SDS011;29247;50.944;5.382;2023-05-10T10:11:35;5.57;;;3.85;;
43650;SDS011;29247;50.944;5.382;2023-05-10T10:14:04;7.82;;;4.30;;
43650;SDS011;29247;50.944;5.382;2023-05-10T10:16:31;7.35;;;4.32;;
43650;SDS011;29247;50.944;5.382;2023-05-10T10:18:59;8.38;;;5.63;;
43650;SDS011;29247;50.944;5.382;2023-05-10T10:21:28;9.30;;;5.63;;
43650;SDS011;29247;50.944;5.382;2023-05-10T10:23:54;8.70;;;5.22;;
43650;SDS011;29247;50.944;5.382;2023-05-10T10:26:20;8.10;;;4.57;;
43650;SDS011;29247;50.944;5.382;2023-05-10T10:34:06;9.63;;;5.10;;
43650;SDS011;29247;50.944;5.382;2023-05-10T10:36:45;7.93;;;5.32;;
43650;SDS011;29247;50.944;5.382;2023-05-10T10:39:12;7.38;;;4.88;;
43650;SDS011;29247;50.944;5.382;2023-05-10T10:41:40;7.95;;;4.40;;
43650;SDS011;29247;50.944;5.382;2023-05-10T10:52:34;7.75;;;4.78;;
43650;SDS011;29247;50.944;5.382;2023-05-10T10:55:03;11.88;;;4.38;;
43650;SDS011;29247;50.944;5.382;2023-05-10T10:57:53;9.20;;;4.83;;
43650;SDS011;29247;50.944;5.382;2023-05-10T11:02:56;8.40;;;4.65;;
43650;SDS011;29247;50.944;5.382;2023-05-10T11:05:37;7.80;;;4.10;;
43650;SDS011;29247;50.944;5.382;2023-05-10T11:08:09;8.40;;;3.97;;
43650;SDS011;29247;50.944;5.382;2023-05-10T11:10:48;7.35;;;3.88;;
43650;SDS011;29247;50.944;5.382;2023-05-10T11:13:17;6.70;;;4.43;;
43650;SDS011;29247;50.944;5.382;2023-05-10T11:15:59;6.40;;;3.72;;
43650;SDS011;29247;50.944;5.382;2023-05-10T11:18:38;6.38;;;3.80;;
43650;SDS011;29247;50.944;5.382;2023-05-10T11:21:05;6.57;;;3.50;;
43650;SDS011;29247;50.944;5.382;2023-05-10T11:26:07;6.38;;;3.80;;
43650;SDS011;29247;50.944;5.382;2023-05-10T11:28:46;7.72;;;3.30;;
43650;SDS011;29247;50.944;5.382;2023-05-10T11:31:15;6.45;;;3.80;;
43650;SDS011;29247;50.944;5.382;2023-05-10T11:33:43;6.47;;;4.05;;
43650;SDS011;29247;50.944;5.382;2023-05-10T11:36:18;5.72;;;3.28;;
43650;SDS011;29247;50.944;5.382;2023-05-10T11:38:46;6.18;;;3.00;;
43650;SDS011;29247;50.944;5.382;2023-05-10T11:41:16;5.57;;;3.97;;
43650;SDS011;29247;50.944;5.382;2023-05-10T11:43:45;10.00;;;3.63;;
43650;SDS011;29247;50.944;5.382;2023-05-10T11:46:16;5.38;;;3.33;;
43650;SDS011;29247;50.944;5.382;2023-05-10T11:48:45;5.93;;;3.85;;
43650;SDS011;29247;50.944;5.382;2023-05-10T11:51:14;6.68;;;3.22;;
43650;SDS011;29247;50.944;5.382;2023-05-10T11:53:40;5.43;;;3.17;;
43650;SDS011;29247;50.944;5.382;2023-05-10T11:56:10;4.70;;;3.10;;
43650;SDS011;29247;50.944;5.382;2023-05-10T11:58:38;3.95;;;2.78;;
43650;SDS011;29247;50.944;5.382;2023-05-10T12:01:05;5.85;;;3.63;;
43650;SDS011;29247;50.944;5.382;2023-05-10T12:03:32;3.80;;;2.60;;
43650;SDS011;29247;50.944;5.382;2023-05-10T12:05:59;4.05;;;2.20;;
43650;SDS011;29247;50.944;5.382;2023-05-10T12:08:26;4.88;;;3.05;;
43650;SDS011;29247;50.944;5.382;2023-05-10T12:11:03;4.55;;;2.58;;
43650;SDS011;29247;50.944;5.382;2023-05-10T12:13:37;4.10;;;2.70;;
43650;SDS011;29247;50.944;5.382;2023-05-10T12:18:40;4.75;;;2.88;;
43650;SDS011;29247;50.944;5.382;2023-05-10T12:21:09;5.35;;;2.85;;
43650;SDS011;29247;50.944;5.382;2023-05-10T12:23:38;6.80;;;2.35;;
43650;SDS011;29247;50.944;5.382;2023-05-10T12:26:04;4.05;;;2.05;;
43650;SDS011;29247;50.944;5.382;2023-05-10T12:28:31;6.22;;;2.10;;
43650;SDS011;29247;50.944;5.382;2023-05-10T12:30:58;4.00;;;2.03;;
43650;SDS011;29247;50.944;5.382;2023-05-10T12:33:27;2.63;;;1.90;;
43650;SDS011;29247;50.944;5.382;2023-05-10T12:36:11;3.95;;;2.40;;
43650;SDS011;29247;50.944;5.382;2023-05-10T12:38:41;4.35;;;2.35;;
43650;SDS011;29247;50.944;5.382;2023-05-10T12:41:09;4.70;;;2.75;;
43650;SDS011;29247;50.944;5.382;2023-05-10T12:43:37;2.90;;;2.03;;
43650;SDS011;29247;50.944;5.382;2023-05-10T12:46:05;3.42;;;2.22;;
43650;SDS011;29247;50.944;5.382;2023-05-10T12:48:31;2.35;;;1.55;;
43650;SDS011;29247;50.944;5.382;2023-05-10T12:51:01;5.32;;;1.88;;
43650;SDS011;29247;50.944;5.382;2023-05-10T12:53:28;2.67;;;1.85;;
43650;SDS011;29247;50.944;5.382;2023-05-10T12:55:56;5.05;;;2.33;;
43650;SDS011;29247;50.944;5.382;2023-05-10T12:58:24;5.68;;;2.17;;
43650;SDS011;29247;50.944;5.382;2023-05-10T13:00:50;4.40;;;1.95;;
43650;SDS011;29247;50.944;5.382;2023-05-10T13:03:17;3.58;;;1.73;;
43650;SDS011;29247;50.944;5.382;2023-05-10T13:05:42;6.10;;;2.42;;
43650;SDS011;29247;50.944;5.382;2023-05-10T13:08:08;4.15;;;2.75;;
43650;SDS011;29247;50.944;5.382;2023-05-10T13:10:34;2.83;;;1.80;;
43650;SDS011;29247;50.944;5.382;2023-05-10T13:13:03;3.45;;;2.08;;
43650;SDS011;29247;50.944;5.382;2023-05-10T13:15:33;3.85;;;1.75;;
43650;SDS011;29247;50.944;5.382;2023-05-10T13:18:00;3.58;;;1.75;;
43650;SDS011;29247;50.944;5.382;2023-05-10T13:20:26;2.75;;;1.40;;
43650;SDS011;29247;50.944;5.382;2023-05-10T13:22:54;1.85;;;1.20;;
43650;SDS011;29247;50.944;5.382;2023-05-10T13:25:20;2.13;;;1.30;;
43650;SDS011;29247;50.944;5.382;2023-05-10T13:27:46;3.25;;;1.42;;
43650;SDS011;29247;50.944;5.382;2023-05-10T13:30:12;2.03;;;1.30;;
43650;SDS011;29247;50.944;5.382;2023-05-10T13:32:38;2.55;;;1.65;;
43650;SDS011;29247;50.944;5.382;2023-05-10T13:35:04;2.47;;;1.67;;
43650;SDS011;29247;50.944;5.382;2023-05-10T13:37:30;2.92;;;1.55;;
43650;SDS011;29247;50.944;5.382;2023-05-10T13:39:57;1.95;;;1.58;;
43650;SDS011;29247;50.944;5.382;2023-05-10T13:42:23;1.88;;;1.58;;
43650;SDS011;29247;50.944;5.382;2023-05-10T13:44:49;3.10;;;1.60;;
43650;SDS011;29247;50.944;5.382;2023-05-10T13:47:17;2.10;;;1.40;;
43650;SDS011;29247;50.944;5.382;2023-05-10T13:49:43;2.13;;;1.38;;
43650;SDS011;29247;50.944;5.382;2023-05-10T13:52:09;3.05;;;1.30;;
43650;SDS011;29247;50.944;5.382;2023-05-10T13:54:35;3.95;;;1.30;;
43650;SDS011;29247;50.944;5.382;2023-05-10T13:57:03;1.83;;;1.02;;
43650;SDS011;29247;50.944;5.382;2023-05-10T13:59:31;1.17;;;1.08;;
43650;SDS011;29247;50.944;5.382;2023-05-10T14:01:58;1.02;;;0.88;;
43650;SDS011;29247;50.944;5.382;2023-05-10T14:04:24;2.95;;;1.00;;
43650;SDS011;29247;50.944;5.382;2023-05-10T14:06:50;2.13;;;1.20;;
43650;SDS011;29247;50.944;5.382;2023-05-10T14:09:17;1.27;;;1.00;;
43650;SDS011;29247;50.944;5.382;2023-05-10T14:11:43;6.15;;;0.73;;
43650;SDS011;29247;50.944;5.382;2023-05-10T14:14:10;1.38;;;0.80;;
43650;SDS011;29247;50.944;5.382;2023-05-10T14:16:36;0.70;;;0.70;;
43650;SDS011;29247;50.944;5.382;2023-05-10T14:19:04;2.72;;;1.17;;
43650;SDS011;29247;50.944;5.382;2023-05-10T14:21:30;1.23;;;0.90;;
43650;SDS011;29247;50.944;5.382;2023-05-10T14:23:56;1.15;;;0.98;;
43650;SDS011;29247;50.944;5.382;2023-05-10T14:26:22;2.25;;;1.35;;
43650;SDS011;29247;50.944;5.382;2023-05-10T14:28:48;1.88;;;1.20;;
43650;SDS011;29247;50.944;5.382;2023-05-10T14:31:16;3.08;;;1.10;;
43650;SDS011;29247;50.944;5.382;2023-05-10T14:33:44;1.85;;;1.42;;
43650;SDS011;29247;50.944;5.382;2023-05-10T14:36:10;2.10;;;1.30;;
43650;SDS011;29247;50.944;5.382;2023-05-10T14:38:36;1.92;;;1.30;;
43650;SDS011;29247;50.944;5.382;2023-05-10T14:41:01;2.17;;;1.15;;
43650;SDS011;29247;50.944;5.382;2023-05-10T14:43:27;3.05;;;1.58;;
43650;SDS011;29247;50.944;5.382;2023-05-10T14:45:53;2.70;;;1.63;;
43650;SDS011;29247;50.944;5.382;2023-05-10T14:48:24;1.52;;;1.15;;
43650;SDS011;29247;50.944;5.382;2023-05-10T14:50:49;1.42;;;1.05;;
43650;SDS011;29247;50.944;5.382;2023-05-10T14:53:17;2.15;;;1.40;;
43650;SDS011;29247;50.944;5.382;2023-05-10T14:55:45;1.17;;;1.08;;
43650;SDS011;29247;50.944;5.382;2023-05-10T14:58:11;2.03;;;1.40;;
43650;SDS011;29247;50.944;5.382;2023-05-10T15:00:37;1.42;;;1.05;;
43650;SDS011;29247;50.944;5.382;2023-05-10T15:03:03;2.33;;;1.02;;
43650;SDS011;29247;50.944;5.382;2023-05-10T15:05:29;1.50;;;1.38;;
43650;SDS011;29247;50.944;5.382;2023-05-10T15:07:58;1.45;;;1.35;;
43650;SDS011;29247;50.944;5.382;2023-05-10T15:10:26;1.60;;;1.08;;
43650;SDS011;29247;50.944;5.382;2023-05-10T15:12:52;2.08;;;1.25;;
43650;SDS011;29247;50.944;5.382;2023-05-10T15:15:18;1.85;;;1.20;;
43650;SDS011;29247;50.944;5.382;2023-05-10T15:17:44;1.35;;;1.00;;
43650;SDS011;29247;50.944;5.382;2023-05-10T15:20:10;1.80;;;1.30;;
43650;SDS011;29247;50.944;5.382;2023-05-10T15:22:39;1.55;;;1.08;;
43650;SDS011;29247;50.944;5.382;2023-05-10T15:25:06;1.55;;;1.00;;
43650;SDS011;29247;50.944;5.382;2023-05-10T15:27:32;3.00;;;1.00;;
43650;SDS011;29247;50.944;5.382;2023-05-10T15:29:58;1.50;;;1.13;;